Courtland, AL

6:43 AM CDT on July 30, 2016 (GMT -0500)
Bay Hill Village | | Change Station

Elev 561 ft 34.78 °N, 87.23 °W | Updated 9 seconds ago

Partly Cloudy
Partly Cloudy
73.2 °F
Feels Like 70 °F
N
0.0
Wind Variable Wind from NNW
Gusts 1.0 mph

Today
High -- | Low -- °F
--% Chance of Precip.
Yesterday
High -- | Low -- °F
Precip. -- in
Pressure 30.00 in
Visibility 6.0 miles
Clouds Few 1200 ft
Few 5500 ft
Heat Index 70 °F
Dew Point 71 °F
Humidity 92%
Rainfall 0.00 in
Snow Depth Not available.
5:58 AM 7:52 PM
Waning Crescent, 14% visible
METAR KMSL 301053Z AUTO 00000KT 6SM BR FEW012 FEW055 22/20 A3002 RMK AO2 SLP158 T02170200
Pressure 30.00 in
Visibility 6.0 miles
Clouds Few 1200 ft
Few 5500 ft
Heat Index 70 °F
Dew Point 71 °F
Humidity 92%
Rainfall 0.00 in
Snow Depth Not available.
5:58 AM 7:52 PM
Waning Crescent, 14% visible
METAR KMSL 301053Z AUTO 00000KT 6SM BR FEW012 FEW055 22/20 A3002 RMK AO2 SLP158 T02170200

10-Day Weather Forecast

Almanac

Astronomy

Jul. 30, 2016 Rise Set
Actual Time
Civil Twilight
Nautical Twilight
Astronomical Twilight
Moon
Length of Visible Light
Length of Day
Tomorrow will be .
, % of the Moon is Illuminated

Today's Extremes

State Highs State Lows

Community

WunderPhotos

Upload Photos

1,928,539 photos uploaded!

WunderBlog® & News

Nearby

Air Quality

  Air Quality AQ Index Pollutant
Not available.

Snow Depth

Station Depth Elevation

Earthquake Activity

City Distance Mag. Time & Date
Minimum magnitude displayed is 2.5.

Coastal Water Temperatures

Place Temperature

Stations

Nearby Weather Stations

Station Location Temp. Windchill Dew Point Humidity Wind Precip. Elev Updated Type
                   

Watches & Warnings

There are currently no watches in effect.